createdAt,value
2019-03-01T00:00:08.972Z,17.50
2019-03-01T00:01:41.453Z,20.30
2019-03-01T00:03:13.876Z,17.27
2019-03-01T00:04:46.287Z,15.93
2019-03-01T00:06:18.764Z,15.83
2019-03-01T00:07:51.190Z,17.70
2019-03-01T00:09:23.644Z,16.90
2019-03-01T00:10:56.050Z,19.60
2019-03-01T00:12:28.391Z,16.40
2019-03-01T00:14:00.823Z,16.10
2019-03-01T00:15:33.332Z,16.43
2019-03-01T00:17:05.730Z,17.90
2019-03-01T00:18:38.079Z,18.75
2019-03-01T00:20:10.511Z,18.47
2019-03-01T00:21:42.851Z,16.23
2019-03-01T00:23:15.332Z,14.23
2019-03-01T00:24:47.744Z,14.43
2019-03-01T00:26:20.095Z,15.33
2019-03-01T00:27:52.484Z,13.23
2019-03-01T00:29:24.911Z,12.77
2019-03-01T00:30:57.262Z,12.67
2019-03-01T00:32:29.676Z,12.70
2019-03-01T00:34:02.150Z,14.87
2019-03-01T00:35:34.501Z,13.87
2019-03-01T00:37:06.896Z,17.53
2019-03-01T00:38:39.293Z,15.77
2019-03-01T00:40:11.643Z,17.23
2019-03-01T00:41:44.125Z,17.27
2019-03-01T00:43:16.521Z,14.80
2019-03-01T00:44:48.941Z,21.63
2019-03-01T00:46:21.501Z,14.70
2019-03-01T00:47:53.957Z,11.57
2019-03-01T00:49:26.294Z,16.63
2019-03-01T00:50:58.774Z,12.57
2019-03-01T00:52:31.171Z,11.63
2019-03-01T00:54:03.497Z,11.57
2019-03-01T00:55:35.919Z,11.53
2019-03-01T00:57:08.333Z,10.77
2019-03-01T00:58:40.736Z,11.77
2019-03-01T01:00:13.245Z,7.57
2019-03-01T01:01:45.727Z,10.43
2019-03-01T01:03:18.071Z,11.17
2019-03-01T01:04:50.466Z,9.97
2019-03-01T01:06:22.872Z,14.77
2019-03-01T01:07:55.223Z,10.37
2019-03-01T01:09:27.708Z,6.67
2019-03-01T01:11:00.175Z,10.17
2019-03-01T01:12:32.534Z,6.13
2019-03-01T01:14:04.931Z,7.47
2019-03-01T01:15:37.331Z,9.57
2019-03-01T01:17:09.673Z,9.70
2019-03-01T01:18:42.092Z,5.60
2019-03-01T01:20:14.506Z,7.93
2019-03-01T01:21:46.838Z,8.23
2019-03-01T01:23:19.334Z,9.73
2019-03-01T01:24:51.736Z,5.93
2019-03-01T01:26:24.073Z,6.47
2019-03-01T01:27:56.563Z,8.07
2019-03-01T01:29:29.142Z,7.50
2019-03-01T01:31:01.472Z,5.03
2019-03-01T01:32:33.872Z,5.77
2019-03-01T01:34:06.294Z,7.80
2019-03-01T01:35:38.621Z,9.37
2019-03-01T01:37:11.090Z,5.27
2019-03-01T01:38:43.507Z,4.63
2019-03-01T01:40:15.859Z,11.43
2019-03-01T01:41:48.272Z,6.33
2019-03-01T01:43:20.677Z,9.60
2019-03-01T01:44:53.106Z,6.87
2019-03-01T01:46:25.702Z,9.20
2019-03-01T01:47:58.042Z,6.93
2019-03-01T01:49:30.382Z,5.57
2019-03-01T01:51:02.795Z,8.57
2019-03-01T01:52:35.122Z,5.27
2019-03-01T01:54:07.459Z,8.63
2019-03-01T01:55:39.879Z,5.07
2019-03-01T01:57:12.351Z,7.57
2019-03-01T01:58:44.691Z,8.73
2019-03-01T02:00:17.195Z,4.37
2019-03-01T02:01:49.655Z,5.00
2019-03-01T02:03:21.988Z,5.27
2019-03-01T02:04:54.387Z,6.40
2019-03-01T02:06:26.735Z,5.00
2019-03-01T02:07:59.139Z,3.27
2019-03-01T02:09:31.542Z,6.53
2019-03-01T02:11:03.958Z,5.23
2019-03-01T02:12:36.291Z,3.33
2019-03-01T02:14:08.695Z,3.77
2019-03-01T02:15:41.118Z,6.23
2019-03-01T02:17:13.478Z,7.63
2019-03-01T02:18:45.959Z,13.07
2019-03-01T02:20:18.283Z,6.23
2019-03-01T02:21:50.627Z,6.13
2019-03-01T02:23:22.963Z,4.67
2019-03-01T02:24:55.431Z,6.17
2019-03-01T02:26:27.782Z,5.53
2019-03-01T02:28:00.174Z,4.30
2019-03-01T02:29:32.510Z,4.17
2019-03-01T02:31:04.847Z,5.70
2019-03-01T02:32:37.336Z,4.50
2019-03-01T02:34:09.734Z,2.57
2019-03-01T02:35:42.138Z,3.77
2019-03-01T02:37:14.551Z,6.30
2019-03-01T02:38:46.880Z,6.00
2019-03-01T02:40:19.294Z,3.40
2019-03-01T02:41:53.518Z,6.00
2019-03-01T02:43:26.039Z,3.93
2019-03-01T02:44:58.441Z,8.10
2019-03-01T02:46:30.927Z,7.20
2019-03-01T02:48:03.409Z,4.20
2019-03-01T02:49:35.819Z,5.33
2019-03-01T02:51:08.300Z,5.77
2019-03-01T02:52:40.782Z,7.60
2019-03-01T02:54:13.200Z,6.63
2019-03-01T02:55:45.600Z,5.40
2019-03-01T02:57:18.079Z,6.07
2019-03-01T02:58:50.499Z,3.37
2019-03-01T03:00:23.440Z,7.50
2019-03-01T03:01:56.517Z,5.83
2019-03-01T03:03:28.938Z,4.43
2019-03-01T03:05:01.349Z,6.77
2019-03-01T03:06:33.815Z,5.67
2019-03-01T03:08:06.145Z,10.60
2019-03-01T03:09:38.648Z,6.67
2019-03-01T03:11:11.117Z,6.93
2019-03-01T03:12:43.520Z,6.10
2019-03-01T03:14:16.252Z,6.17
2019-03-01T03:15:48.588Z,5.47
2019-03-01T03:17:20.937Z,6.13
2019-03-01T03:18:53.408Z,6.00
2019-03-01T03:20:25.826Z,6.27
2019-03-01T03:21:58.231Z,5.90
2019-03-01T03:23:30.703Z,3.73
2019-03-01T03:25:03.115Z,4.70
2019-03-01T03:26:35.467Z,6.13
2019-03-01T03:28:07.808Z,3.47
2019-03-01T03:29:40.287Z,7.03
2019-03-01T03:31:12.635Z,6.23
2019-03-01T03:32:45.102Z,3.77
2019-03-01T03:34:17.586Z,3.80
2019-03-01T03:35:50.007Z,4.97
2019-03-01T03:37:22.419Z,9.37
2019-03-01T03:38:54.902Z,4.50
2019-03-01T03:40:27.304Z,5.10
2019-03-01T03:41:59.727Z,3.87
2019-03-01T03:43:32.201Z,6.40
2019-03-01T03:45:04.682Z,3.67
2019-03-01T03:46:37.105Z,5.47
2019-03-01T03:48:09.510Z,4.00
2019-03-01T03:49:41.916Z,8.83
2019-03-01T03:51:14.431Z,4.07
2019-03-01T03:52:46.915Z,3.77
2019-03-01T03:54:19.330Z,6.80
2019-03-01T03:55:51.813Z,7.00
2019-03-01T03:57:24.291Z,4.13
2019-03-01T03:58:56.618Z,3.13
2019-03-01T04:00:29.091Z,3.40
2019-03-01T04:02:01.516Z,6.57
2019-03-01T04:03:33.927Z,6.47
2019-03-01T04:05:06.403Z,5.27
2019-03-01T04:06:38.871Z,5.10
2019-03-01T04:08:11.239Z,4.97
2019-03-01T04:09:43.912Z,3.33
2019-03-01T04:11:16.374Z,3.67
2019-03-01T04:12:48.737Z,3.10
2019-03-01T04:14:21.203Z,5.07
2019-03-01T04:15:53.680Z,2.87
2019-03-01T04:17:26.082Z,4.27
2019-03-01T04:18:58.575Z,4.53
2019-03-01T04:20:30.982Z,5.30
2019-03-01T04:22:03.407Z,4.67
2019-03-01T04:23:35.839Z,4.97
2019-03-01T04:25:08.177Z,4.40
2019-03-01T04:26:40.580Z,3.63
2019-03-01T04:28:13.067Z,5.03
2019-03-01T04:29:45.546Z,4.40
2019-03-01T04:31:17.964Z,4.97
2019-03-01T04:32:50.360Z,4.17
2019-03-01T04:34:22.774Z,4.63
2019-03-01T04:35:55.109Z,4.73
2019-03-01T04:37:27.510Z,5.87
2019-03-01T04:39:00.007Z,3.10
2019-03-01T04:40:32.357Z,3.33
2019-03-01T04:42:04.749Z,2.73
2019-03-01T04:43:37.143Z,5.90
2019-03-01T04:45:09.502Z,3.67
2019-03-01T04:46:41.908Z,6.10
2019-03-01T04:48:14.308Z,3.30
2019-03-01T04:49:46.646Z,3.67
2019-03-01T04:51:19.071Z,5.03
2019-03-01T04:52:51.471Z,4.10
2019-03-01T04:54:23.796Z,3.43
2019-03-01T04:55:56.222Z,3.40
2019-03-01T04:57:28.696Z,6.43
2019-03-01T04:59:01.026Z,4.50
2019-03-01T05:00:33.529Z,3.20
2019-03-01T05:02:05.999Z,5.70
2019-03-01T05:03:38.329Z,2.67
2019-03-01T05:05:10.744Z,4.13
2019-03-01T05:06:43.298Z,5.60
2019-03-01T05:08:15.713Z,4.90
2019-03-01T05:09:48.176Z,5.43
2019-03-01T05:11:20.808Z,2.73
2019-03-01T05:12:53.207Z,1.93
2019-03-01T05:14:25.604Z,3.73
2019-03-01T05:15:58.011Z,4.40
2019-03-01T05:17:30.360Z,3.23
2019-03-01T05:19:02.850Z,4.10
2019-03-01T05:20:35.317Z,3.73
2019-03-01T05:22:07.674Z,3.30
2019-03-01T05:23:40.011Z,9.27
2019-03-01T05:25:12.340Z,2.77
2019-03-01T05:26:44.938Z,4.00
2019-03-01T05:28:17.354Z,3.43
2019-03-01T05:29:49.749Z,4.30
2019-03-01T05:31:22.087Z,3.87
2019-03-01T05:32:54.608Z,4.53
2019-03-01T05:34:27.155Z,3.23
2019-03-01T05:35:59.487Z,1.90
2019-03-01T05:37:31.890Z,3.17
2019-03-01T05:39:04.374Z,5.80
2019-03-01T05:40:36.706Z,5.47
2019-03-01T05:42:09.176Z,5.93
2019-03-01T05:43:41.610Z,8.40
2019-03-01T05:45:14.000Z,2.53
2019-03-01T05:46:46.519Z,5.00
2019-03-01T05:48:18.963Z,3.73
2019-03-01T05:49:51.314Z,3.93
2019-03-01T05:51:23.714Z,1.80
2019-03-01T05:52:56.051Z,2.60
2019-03-01T05:54:28.469Z,1.33
2019-03-01T05:56:00.990Z,2.90
2019-03-01T05:57:33.395Z,3.53
2019-03-01T05:59:07.194Z,2.77
2019-03-01T06:00:39.739Z,3.70
2019-03-01T06:02:12.207Z,3.43
2019-03-01T06:03:44.533Z,3.57
2019-03-01T06:05:16.954Z,3.17
2019-03-01T06:06:49.359Z,3.43
2019-03-01T06:08:21.699Z,2.50
2019-03-01T06:09:54.097Z,3.00
2019-03-01T06:11:26.513Z,3.70
2019-03-01T06:12:58.895Z,2.87
2019-03-01T06:14:31.341Z,4.77
2019-03-01T06:16:03.926Z,4.73
2019-03-01T06:17:36.246Z,2.20
2019-03-01T06:19:08.652Z,2.13
2019-03-01T06:20:40.994Z,2.03
2019-03-01T06:22:13.419Z,4.17
2019-03-01T06:23:45.820Z,3.50
2019-03-01T06:25:18.221Z,2.43
2019-03-01T06:26:50.629Z,3.23
2019-03-01T06:28:23.036Z,2.80
2019-03-01T06:29:55.431Z,2.93
2019-03-01T06:31:27.771Z,3.40
2019-03-01T06:33:00.268Z,5.63
2019-03-01T06:34:32.668Z,4.73
2019-03-01T06:36:05.076Z,2.97
2019-03-01T06:37:37.651Z,2.40
2019-03-01T06:39:10.136Z,4.33
2019-03-01T06:40:42.463Z,3.50
2019-03-01T06:42:14.885Z,4.43
2019-03-01T06:43:47.348Z,2.07
2019-03-01T06:45:19.690Z,3.47
2019-03-01T06:46:52.019Z,2.70
2019-03-01T06:48:24.507Z,5.47
2019-03-01T06:49:56.832Z,3.27
2019-03-01T06:51:29.413Z,4.30
2019-03-01T06:53:01.879Z,4.10
2019-03-01T06:54:34.216Z,3.67
2019-03-01T06:56:06.896Z,2.63
2019-03-01T06:57:39.398Z,3.23
2019-03-01T06:59:11.724Z,2.60
2019-03-01T07:00:50.306Z,5.63
2019-03-01T07:02:18.204Z,4.53
2019-03-01T07:03:50.558Z,2.93
2019-03-01T07:05:22.951Z,3.60
2019-03-01T07:06:55.359Z,5.27
2019-03-01T07:08:27.713Z,3.30
2019-03-01T07:10:00.035Z,4.30
2019-03-01T07:11:32.432Z,3.60
2019-03-01T07:13:04.754Z,2.60
2019-03-01T07:14:37.169Z,4.13
2019-03-01T07:16:09.575Z,3.50
2019-03-01T07:17:41.892Z,4.17
2019-03-01T07:19:14.319Z,3.17
2019-03-01T07:20:46.776Z,3.40
2019-03-01T07:22:19.103Z,1.30
2019-03-01T07:23:51.435Z,1.60
2019-03-01T07:25:23.907Z,5.90
2019-03-01T07:26:56.236Z,2.53
2019-03-01T07:28:28.631Z,3.43
2019-03-01T07:30:01.046Z,2.43
2019-03-01T07:31:33.377Z,4.87
2019-03-01T07:33:05.777Z,1.90
2019-03-01T07:34:38.198Z,5.30
2019-03-01T07:36:10.631Z,2.70
2019-03-01T07:37:43.027Z,6.13
2019-03-01T07:39:15.422Z,3.57
2019-03-01T07:40:47.766Z,3.77
2019-03-01T07:42:20.170Z,4.13
2019-03-01T07:43:52.569Z,2.73
2019-03-01T07:45:24.984Z,3.30
2019-03-01T07:46:57.475Z,2.93
2019-03-01T07:48:29.939Z,2.90
2019-03-01T07:50:02.267Z,2.70
2019-03-01T07:51:35.996Z,1.47
2019-03-01T07:53:08.569Z,3.53
2019-03-01T07:54:40.967Z,1.20
2019-03-01T07:56:13.387Z,2.73
2019-03-01T07:57:46.609Z,3.20
2019-03-01T07:59:19.739Z,2.60
2019-03-01T08:00:53.601Z,3.23
2019-03-01T08:02:26.427Z,5.20
2019-03-01T08:03:58.819Z,4.80
2019-03-01T08:05:31.207Z,3.80
2019-03-01T08:07:03.625Z,3.60
2019-03-01T08:08:38.818Z,2.03
2019-03-01T08:10:09.971Z,2.47
2019-03-01T08:11:42.392Z,0.93
2019-03-01T08:13:17.549Z,3.37
2019-03-01T08:14:49.012Z,2.77
2019-03-01T08:16:21.598Z,2.37
2019-03-01T08:17:54.112Z,2.00
2019-03-01T08:19:26.807Z,1.73
2019-03-01T08:20:59.590Z,3.00
2019-03-01T08:22:32.002Z,2.10
2019-03-01T08:24:07.756Z,2.57
2019-03-01T08:25:38.514Z,2.10
2019-03-01T08:27:11.176Z,1.13
2019-03-01T08:28:43.751Z,2.30
2019-03-01T08:30:16.150Z,1.20
2019-03-01T08:31:48.641Z,1.17
2019-03-01T08:33:21.248Z,1.53
2019-03-01T08:34:54.669Z,1.07
2019-03-01T08:36:27.265Z,1.53
2019-03-01T08:37:59.655Z,2.80
2019-03-01T08:39:32.067Z,1.30
2019-03-01T08:41:04.456Z,7.37
2019-03-01T08:42:37.405Z,2.67
2019-03-01T08:44:09.911Z,1.67
2019-03-01T08:45:42.322Z,2.00
2019-03-01T08:47:16.619Z,1.03
2019-03-01T08:48:49.184Z,3.87
2019-03-01T08:50:21.777Z,2.00
2019-03-01T08:51:54.233Z,2.73
2019-03-01T08:53:26.624Z,1.70
2019-03-01T08:55:03.410Z,2.27
2019-03-01T08:56:33.355Z,2.03
2019-03-01T08:58:07.027Z,5.87
2019-03-01T08:59:39.605Z,3.60
2019-03-01T09:01:12.075Z,2.30
2019-03-01T09:02:44.482Z,3.53
2019-03-01T09:04:17.732Z,2.67
2019-03-01T09:05:50.982Z,1.27
2019-03-01T09:07:23.392Z,1.93
2019-03-01T09:08:55.783Z,4.93
2019-03-01T09:10:29.235Z,1.30
2019-03-01T09:12:02.554Z,2.00
2019-03-01T09:13:36.209Z,2.33
2019-03-01T09:15:09.025Z,3.50
2019-03-01T09:16:41.443Z,3.50
2019-03-01T09:18:14.605Z,2.63
2019-03-01T09:19:47.992Z,1.93
2019-03-01T09:21:20.791Z,2.73
2019-03-01T09:22:53.189Z,1.83
2019-03-01T09:24:28.973Z,1.87
2019-03-01T09:26:00.063Z,2.87
2019-03-01T09:27:32.579Z,1.23
2019-03-01T09:29:05.042Z,2.70
2019-03-01T09:30:40.330Z,2.33
2019-03-01T09:32:11.551Z,4.10
2019-03-01T09:33:43.960Z,1.87
2019-03-01T09:35:16.362Z,4.37
2019-03-01T09:36:51.488Z,2.10
2019-03-01T09:38:22.733Z,2.20
2019-03-01T09:40:05.084Z,1.27
2019-03-01T09:41:29.228Z,2.20
2019-03-01T09:43:01.635Z,3.40
2019-03-01T09:44:34.581Z,3.30
2019-03-01T09:46:08.228Z,2.50
2019-03-01T09:47:40.840Z,2.50
2019-03-01T09:49:13.312Z,3.60
2019-03-01T09:50:45.710Z,2.00
2019-03-01T09:52:20.391Z,1.83
2019-03-01T09:53:52.380Z,5.77
2019-03-01T09:55:24.783Z,1.90
2019-03-01T09:56:57.347Z,3.40
2019-03-01T09:58:30.431Z,1.47
2019-03-01T10:00:02.832Z,4.47
2019-03-01T10:01:35.690Z,1.33
2019-03-01T10:03:08.097Z,1.77
2019-03-01T10:04:40.517Z,2.27
2019-03-01T10:06:13.407Z,1.50
2019-03-01T10:07:45.804Z,3.30
2019-03-01T10:09:18.223Z,2.37
2019-03-01T10:10:50.627Z,2.10
2019-03-01T10:12:22.951Z,1.60
2019-03-01T10:13:55.300Z,1.23
2019-03-01T10:15:27.783Z,1.50
2019-03-01T10:17:00.178Z,1.30
2019-03-01T10:18:32.587Z,1.40
2019-03-01T10:20:04.995Z,2.63
2019-03-01T10:21:37.395Z,1.93
2019-03-01T10:23:09.912Z,0.87
2019-03-01T10:24:42.905Z,2.73
2019-03-01T10:26:15.374Z,2.30
2019-03-01T10:27:47.924Z,0.77
2019-03-01T10:29:20.320Z,1.80
2019-03-01T10:30:52.983Z,2.10
2019-03-01T10:32:25.522Z,1.50
2019-03-01T10:33:58.003Z,1.10
2019-03-01T10:35:30.424Z,2.97
2019-03-01T10:37:02.825Z,1.80
2019-03-01T10:38:35.227Z,2.87
2019-03-01T10:40:07.563Z,1.10
2019-03-01T10:41:39.988Z,2.07
2019-03-01T10:43:12.415Z,2.10
2019-03-01T10:44:44.895Z,1.13
2019-03-01T10:46:17.242Z,0.60
2019-03-01T10:47:49.631Z,0.50
2019-03-01T10:49:21.957Z,1.90
2019-03-01T10:50:54.375Z,0.70
2019-03-01T10:52:26.737Z,0.63
2019-03-01T10:53:59.061Z,0.47
2019-03-01T10:55:31.479Z,0.83
2019-03-01T10:57:03.998Z,1.90
2019-03-01T10:58:36.400Z,0.70
2019-03-01T11:00:08.723Z,0.50
2019-03-01T11:01:41.143Z,0.60
2019-03-01T11:03:13.545Z,0.53
2019-03-01T11:04:45.940Z,0.50
2019-03-01T11:06:18.334Z,2.00
2019-03-01T11:07:50.684Z,0.67
2019-03-01T11:09:23.082Z,0.77
2019-03-01T11:10:55.608Z,2.20
2019-03-01T11:12:27.956Z,0.70
2019-03-01T11:14:00.300Z,0.40
2019-03-01T11:15:32.693Z,0.70
2019-03-01T11:17:05.087Z,0.77
2019-03-01T11:18:37.436Z,0.53
2019-03-01T11:20:09.831Z,0.40
2019-03-01T11:21:42.160Z,1.50
2019-03-01T11:23:14.591Z,0.63
2019-03-01T11:24:46.982Z,1.03
2019-03-01T11:26:19.374Z,0.50
2019-03-01T11:27:51.707Z,1.13
2019-03-01T11:29:24.117Z,0.50
2019-03-01T11:30:56.515Z,1.10
2019-03-01T11:32:28.917Z,0.87
2019-03-01T11:34:01.495Z,0.90
2019-03-01T11:35:33.895Z,1.10
2019-03-01T11:37:06.290Z,1.30
2019-03-01T11:38:38.779Z,1.67
2019-03-01T11:40:11.175Z,2.00
2019-03-01T11:41:43.585Z,1.17
2019-03-01T11:43:15.986Z,0.87
2019-03-01T11:44:48.407Z,2.00
2019-03-01T11:46:20.808Z,1.00
2019-03-01T11:47:53.218Z,2.40
2019-03-01T11:49:25.561Z,2.60
2019-03-01T11:50:58.035Z,1.63
2019-03-01T11:52:30.507Z,0.60
2019-03-01T11:54:02.853Z,2.30
2019-03-01T11:55:35.250Z,0.90
2019-03-01T11:57:07.642Z,2.33
2019-03-01T11:58:40.035Z,0.77
2019-03-01T12:00:12.383Z,0.40
2019-03-01T12:01:44.795Z,0.50
2019-03-01T12:03:17.267Z,0.47
2019-03-01T12:04:49.690Z,1.00
2019-03-01T12:06:22.161Z,1.10
2019-03-01T12:07:54.631Z,0.40
2019-03-01T12:09:27.031Z,1.23
2019-03-01T12:10:59.523Z,0.57
2019-03-01T12:12:31.926Z,0.40
2019-03-01T12:14:04.247Z,1.43
2019-03-01T12:15:36.669Z,0.30
2019-03-01T12:17:09.170Z,0.40
2019-03-01T12:18:41.551Z,0.33
2019-03-01T12:20:14.047Z,0.80
2019-03-01T12:21:46.476Z,0.67
2019-03-01T12:23:18.806Z,0.40
2019-03-01T12:24:51.276Z,0.63
2019-03-01T12:26:23.695Z,0.43
2019-03-01T12:27:56.024Z,0.37
2019-03-01T12:29:28.502Z,0.60
2019-03-01T12:31:02.132Z,1.17
2019-03-01T12:32:34.649Z,2.00
2019-03-01T12:34:06.975Z,1.43
2019-03-01T12:35:39.371Z,0.57
2019-03-01T12:37:11.714Z,0.63
2019-03-01T12:38:44.187Z,0.53
2019-03-01T12:40:16.582Z,0.40
2019-03-01T12:41:48.939Z,0.60
2019-03-01T12:43:21.338Z,0.50
2019-03-01T12:44:54.134Z,1.10
2019-03-01T12:46:27.018Z,1.03
2019-03-01T12:47:59.626Z,0.50
2019-03-01T12:49:31.963Z,0.87
2019-03-01T12:51:04.367Z,2.67
2019-03-01T12:52:36.868Z,0.60
2019-03-01T12:54:09.265Z,0.73
2019-03-01T12:55:41.591Z,1.07
2019-03-01T12:57:14.000Z,0.47
2019-03-01T12:58:46.422Z,2.40
2019-03-01T13:00:18.825Z,0.97
2019-03-01T13:01:51.292Z,0.60
2019-03-01T13:03:23.877Z,1.33
2019-03-01T13:04:56.339Z,1.33
2019-03-01T13:06:28.883Z,0.50
2019-03-01T13:08:01.280Z,0.60
2019-03-01T13:09:33.616Z,0.60
2019-03-01T13:11:06.028Z,0.67
2019-03-01T13:12:38.431Z,0.73
2019-03-01T13:14:10.840Z,0.70
2019-03-01T13:15:45.399Z,0.63
2019-03-01T13:17:17.435Z,0.63
2019-03-01T13:18:51.288Z,0.80
2019-03-01T13:20:23.947Z,0.60
2019-03-01T13:21:56.363Z,0.70
2019-03-01T13:23:28.696Z,1.57
2019-03-01T13:25:01.117Z,1.53
2019-03-01T13:26:33.627Z,0.53
2019-03-01T13:28:05.999Z,0.70
2019-03-01T13:29:38.434Z,0.63
2019-03-01T13:31:11.382Z,2.17
2019-03-01T13:32:44.647Z,0.70
2019-03-01T13:34:17.050Z,0.50
2019-03-01T13:35:49.395Z,0.67
2019-03-01T13:37:21.952Z,1.17
2019-03-01T13:38:54.683Z,1.17
2019-03-01T13:40:27.153Z,0.50
2019-03-01T13:41:59.586Z,0.63
2019-03-01T13:43:33.264Z,0.70
2019-03-01T13:45:05.849Z,0.60
2019-03-01T13:46:38.271Z,1.43
2019-03-01T13:48:10.886Z,2.70
2019-03-01T13:49:43.358Z,0.60
2019-03-01T13:51:17.202Z,0.60
2019-03-01T13:52:49.795Z,1.07
2019-03-01T13:54:22.192Z,0.83
2019-03-01T13:55:56.514Z,0.53
2019-03-01T13:57:28.875Z,2.67
2019-03-01T13:59:02.893Z,1.13
2019-03-01T14:00:35.356Z,1.10
2019-03-01T14:02:08.465Z,0.60
2019-03-01T14:03:40.974Z,1.23
2019-03-01T14:05:17.031Z,0.70
2019-03-01T14:06:47.795Z,0.73
2019-03-01T14:08:20.207Z,0.70
2019-03-01T14:09:52.603Z,0.80
2019-03-01T14:11:24.926Z,0.63
2019-03-01T14:12:57.551Z,0.80
2019-03-01T14:14:29.929Z,0.93
2019-03-01T14:16:02.355Z,1.23
2019-03-01T14:17:34.780Z,0.60
2019-03-01T14:19:07.124Z,0.70
2019-03-01T14:20:39.620Z,0.77
2019-03-01T14:22:13.928Z,1.37
2019-03-01T14:23:46.071Z,0.93
2019-03-01T14:25:18.513Z,1.07
2019-03-01T14:26:54.027Z,2.03
2019-03-01T14:28:24.890Z,1.00
2019-03-01T14:29:57.299Z,1.23
2019-03-01T14:31:29.764Z,1.37
2019-03-01T14:33:02.349Z,1.53
2019-03-01T14:34:34.997Z,0.90
2019-03-01T14:36:07.395Z,0.90
2019-03-01T14:37:40.051Z,0.87
2019-03-01T14:39:12.459Z,0.93
2019-03-01T14:40:44.872Z,0.90
2019-03-01T14:42:17.277Z,3.20
2019-03-01T14:43:49.810Z,2.03
2019-03-01T14:45:22.305Z,1.00
2019-03-01T14:46:56.209Z,1.47
2019-03-01T14:48:28.869Z,0.70
2019-03-01T14:50:01.311Z,2.13
2019-03-01T14:51:33.674Z,2.97
2019-03-01T14:53:06.070Z,0.90
2019-03-01T14:54:38.592Z,3.20
2019-03-01T14:56:12.677Z,0.70
2019-03-01T14:57:46.245Z,1.10
2019-03-01T14:59:19.167Z,1.23
2019-03-01T15:00:51.687Z,0.93
2019-03-01T15:02:24.159Z,1.07
2019-03-01T15:03:56.548Z,1.10
2019-03-01T15:05:28.890Z,2.67
2019-03-01T15:07:01.307Z,1.97
2019-03-01T15:08:33.698Z,2.40
2019-03-01T15:10:06.034Z,1.10
2019-03-01T15:11:41.196Z,1.07
2019-03-01T15:13:12.913Z,3.50
2019-03-01T15:14:49.666Z,0.90
2019-03-01T15:16:19.428Z,1.13
2019-03-01T15:17:53.779Z,1.33
2019-03-01T15:19:25.887Z,1.10
2019-03-01T15:21:02.404Z,1.00
2019-03-01T15:22:32.435Z,0.90
2019-03-01T15:24:04.843Z,1.43
2019-03-01T15:25:37.316Z,1.87
2019-03-01T15:27:09.725Z,1.07
2019-03-01T15:28:42.124Z,1.10
2019-03-01T15:30:14.546Z,2.60
2019-03-01T15:31:47.020Z,1.37
2019-03-01T15:33:19.440Z,1.40
2019-03-01T15:34:51.975Z,0.83
2019-03-01T15:36:24.502Z,1.50
2019-03-01T15:37:56.907Z,1.37
2019-03-01T15:39:29.379Z,1.63
2019-03-01T15:41:03.591Z,2.33
2019-03-01T15:42:35.840Z,1.43
2019-03-01T15:44:08.448Z,1.03
2019-03-01T15:45:41.178Z,2.27
2019-03-01T15:47:13.596Z,1.47
2019-03-01T15:48:46.179Z,1.37
2019-03-01T15:50:18.611Z,1.00
2019-03-01T15:51:51.008Z,1.10
2019-03-01T15:53:24.942Z,1.33
2019-03-01T15:54:57.588Z,1.03
2019-03-01T15:56:29.983Z,1.23
2019-03-01T15:58:02.394Z,1.53
2019-03-01T15:59:34.789Z,2.47
2019-03-01T16:01:11.110Z,1.47
2019-03-01T16:02:41.286Z,1.37
2019-03-01T16:04:13.791Z,1.33
2019-03-01T16:05:46.112Z,1.30
2019-03-01T16:07:18.459Z,2.60
2019-03-01T16:08:50.944Z,1.40
2019-03-01T16:10:23.288Z,1.53
2019-03-01T16:11:56.489Z,4.10
2019-03-01T16:13:30.096Z,1.40
2019-03-01T16:15:02.507Z,1.17
2019-03-01T16:16:34.908Z,1.27
2019-03-01T16:18:07.239Z,1.53
2019-03-01T16:19:41.753Z,1.30
2019-03-01T16:21:13.767Z,1.37
2019-03-01T16:22:46.159Z,1.90
2019-03-01T16:24:18.486Z,1.83
2019-03-01T16:25:53.109Z,2.40
2019-03-01T16:27:24.933Z,1.50
2019-03-01T16:28:57.272Z,2.47
2019-03-01T16:30:29.760Z,1.70
2019-03-01T16:32:04.798Z,1.60
2019-03-01T16:33:39.333Z,2.77
2019-03-01T16:35:16.233Z,3.50
2019-03-01T16:36:46.112Z,2.40
2019-03-01T16:38:18.512Z,3.63
2019-03-01T16:39:50.978Z,1.80
2019-03-01T16:41:23.387Z,2.23
2019-03-01T16:42:55.715Z,2.10
2019-03-01T16:44:28.112Z,3.03
2019-03-01T16:46:00.634Z,2.27
2019-03-01T16:47:33.034Z,2.13
2019-03-01T16:49:05.433Z,2.57
2019-03-01T16:50:40.674Z,3.30
2019-03-01T16:52:12.119Z,6.50
2019-03-01T16:53:44.443Z,3.00
2019-03-01T16:55:16.849Z,3.60
2019-03-01T16:56:49.371Z,2.53
2019-03-01T16:58:24.456Z,2.87
2019-03-01T16:59:56.551Z,3.10
2019-03-01T17:01:29.836Z,5.20
2019-03-01T17:03:03.178Z,2.20
2019-03-01T17:04:36.388Z,4.17
2019-03-01T17:06:10.433Z,3.03
2019-03-01T17:07:42.822Z,2.73
2019-03-01T17:09:16.494Z,5.00
2019-03-01T17:10:49.022Z,4.20
2019-03-01T17:12:22.503Z,3.67
2019-03-01T17:13:55.118Z,5.43
2019-03-01T17:15:27.451Z,4.10
2019-03-01T17:17:00.679Z,5.90
2019-03-01T17:18:33.345Z,4.23
2019-03-01T17:20:05.739Z,4.23
2019-03-01T17:21:38.439Z,4.37
2019-03-01T17:23:11.464Z,3.57
2019-03-01T17:24:43.868Z,2.37
2019-03-01T17:26:16.346Z,2.77
2019-03-01T17:27:49.617Z,2.30
2019-03-01T17:29:22.185Z,2.30
2019-03-01T17:30:54.687Z,2.67
2019-03-01T17:32:27.082Z,3.57
2019-03-01T17:33:59.430Z,2.87
2019-03-01T17:35:31.903Z,2.33
2019-03-01T17:37:04.368Z,3.63
2019-03-01T17:38:36.775Z,3.50
2019-03-01T17:40:09.107Z,2.87
2019-03-01T17:41:44.635Z,2.10
2019-03-01T17:43:15.627Z,3.77
2019-03-01T17:44:47.954Z,4.47
2019-03-01T17:46:20.351Z,7.43
2019-03-01T17:47:52.672Z,3.43
2019-03-01T17:49:25.175Z,3.73
2019-03-01T17:50:57.655Z,3.17
2019-03-01T17:52:30.500Z,4.10
2019-03-01T17:54:04.280Z,5.30
2019-03-01T17:55:37.517Z,3.13
2019-03-01T17:57:10.876Z,4.30
2019-03-01T17:58:44.845Z,3.37
2019-03-01T18:00:17.332Z,4.00
2019-03-01T18:01:49.739Z,5.20
2019-03-01T18:03:22.077Z,4.17
2019-03-01T18:04:54.499Z,4.23
2019-03-01T18:06:26.823Z,4.37
2019-03-01T18:07:59.975Z,4.97
2019-03-01T18:09:33.274Z,6.67
2019-03-01T18:11:08.523Z,5.17
2019-03-01T18:12:39.623Z,4.73
2019-03-01T18:14:12.018Z,4.47
2019-03-01T18:15:45.079Z,4.20
2019-03-01T18:17:18.496Z,3.73
2019-03-01T18:18:52.991Z,5.17
2019-03-01T18:20:24.998Z,5.00
2019-03-01T18:21:57.419Z,7.10
2019-03-01T18:23:29.814Z,5.23
2019-03-01T18:25:02.238Z,7.17
2019-03-01T18:26:36.311Z,4.60
2019-03-01T18:28:09.048Z,5.20
2019-03-01T18:29:42.351Z,4.27
2019-03-01T18:31:15.742Z,6.23
2019-03-01T18:32:48.215Z,4.27
2019-03-01T18:34:20.615Z,4.33
2019-03-01T18:35:55.739Z,4.40
2019-03-01T18:37:27.382Z,3.97
2019-03-01T18:39:06.841Z,4.93
2019-03-01T18:40:36.124Z,4.17
2019-03-01T18:42:08.609Z,5.63
2019-03-01T18:43:40.930Z,5.23
2019-03-01T18:45:13.336Z,5.00
2019-03-01T18:46:45.827Z,5.30
2019-03-01T18:48:18.155Z,5.60
2019-03-01T18:49:51.427Z,4.73
2019-03-01T18:51:24.875Z,5.27
2019-03-01T18:52:57.199Z,5.10
2019-03-01T18:54:29.662Z,6.67
2019-03-01T18:56:03.160Z,5.23
2019-03-01T18:57:38.560Z,5.73
2019-03-01T18:59:09.680Z,4.47
2019-03-01T19:00:42.027Z,5.67
2019-03-01T19:02:14.474Z,5.13
2019-03-01T19:03:46.927Z,5.90
2019-03-01T19:05:19.339Z,6.90
2019-03-01T19:06:52.594Z,5.83
2019-03-01T19:08:25.098Z,5.40
2019-03-01T19:09:57.419Z,5.13
2019-03-01T19:11:29.798Z,4.73
2019-03-01T19:13:02.346Z,5.77
2019-03-01T19:14:35.546Z,5.50
2019-03-01T19:16:08.861Z,4.47
2019-03-01T19:17:41.748Z,4.23
2019-03-01T19:19:14.334Z,3.77
2019-03-01T19:20:46.731Z,4.07
2019-03-01T19:22:19.139Z,4.50
2019-03-01T19:23:51.623Z,4.23
2019-03-01T19:25:25.242Z,7.30
2019-03-01T19:26:58.187Z,6.03
2019-03-01T19:28:30.544Z,4.77
2019-03-01T19:30:04.950Z,6.23
2019-03-01T19:31:36.963Z,6.13
2019-03-01T19:33:09.427Z,5.63
2019-03-01T19:34:41.780Z,4.70
2019-03-01T19:36:14.186Z,4.90
2019-03-01T19:37:49.661Z,5.50
2019-03-01T19:39:20.655Z,5.60
2019-03-01T19:40:53.155Z,5.40
2019-03-01T19:42:25.614Z,4.80
2019-03-01T19:43:58.057Z,4.50
2019-03-01T19:45:30.532Z,5.77
2019-03-01T19:47:03.132Z,5.73
2019-03-01T19:48:37.303Z,5.97
2019-03-01T19:50:09.572Z,3.70
2019-03-01T19:51:42.060Z,5.03
2019-03-01T19:53:14.389Z,4.90
2019-03-01T19:54:46.890Z,4.83
2019-03-01T19:56:24.964Z,4.57
2019-03-01T19:57:53.405Z,5.73
2019-03-01T19:59:25.799Z,5.10
2019-03-01T20:00:58.214Z,5.43
2019-03-01T20:02:31.004Z,5.73
2019-03-01T20:04:04.322Z,4.53
2019-03-01T20:05:36.790Z,4.97
2019-03-01T20:07:09.152Z,5.53
2019-03-01T20:08:41.851Z,5.97
2019-03-01T20:10:15.129Z,6.23
2019-03-01T20:11:48.371Z,4.83
2019-03-01T20:13:20.771Z,5.67
2019-03-01T20:14:53.239Z,7.30
2019-03-01T20:16:25.579Z,7.67
2019-03-01T20:17:57.998Z,6.50
2019-03-01T20:19:30.327Z,6.97
2019-03-01T20:21:05.844Z,4.63
2019-03-01T20:22:36.768Z,5.70
2019-03-01T20:24:09.162Z,5.87
2019-03-01T20:25:41.487Z,6.00
2019-03-01T20:27:13.900Z,7.67
2019-03-01T20:28:47.674Z,6.90